Time;durP1;ratioP1;P1;durP2;ratioP2;P2;SDS_P1;SDS_P2;PMS_P1;PMS_P2;Temp;Humidity;BMP_temperature;BMP_pressure;BME280_temperature;BME280_humidity;BME280_pressure;Samples;Min_cycle;Max_cycle;Signal;HPM_P1;HPM_P2
2023/04/09 00:01:59;;;;;;;0.73;0.73;;;;;;;8.38;90.43;95537.66;5134116;27;20442;-56
2023/04/09 00:04:27;;;;;;;0.50;0.40;;;;;;;8.13;91.92;95522.31;5134369;27;20506;-56
2023/04/09 00:06:56;;;;;;;0.40;0.30;;;;;;;7.91;93.10;95499.66;5134568;27;20508;-56
2023/04/09 00:09:24;;;;;;;0.50;0.40;;;;;;;8.15;93.81;95553.75;5133725;27;20438;-56
2023/04/09 00:11:52;;;;;;;0.30;0.30;;;;;;;7.98;95.47;95548.56;5133642;27;20432;-56
2023/04/09 00:14:21;;;;;;;0.70;0.70;;;;;;;7.86;97.36;95552.38;5134363;27;20512;-56
2023/04/09 00:16:49;;;;;;;0.60;0.60;;;;;;;8.04;95.74;95547.59;5134088;27;20484;-56
2023/04/09 00:19:19;;;;;;;0.40;0.30;;;;;;;8.11;94.16;95548.19;5134335;27;20489;-56
2023/04/09 00:21:48;;;;;;;0.90;0.90;;;;;;;8.17;93.11;95551.69;5134018;27;20540;-56
2023/04/09 00:24:16;;;;;;;0.47;0.30;;;;;;;8.18;92.95;95555.91;5134027;27;20470;-56
2023/04/09 00:26:45;;;;;;;3.90;0.67;;;;;;;8.17;92.57;95552.44;5133832;27;20574;-56
2023/04/09 00:29:13;;;;;;;0.40;0.40;;;;;;;8.06;93.66;95556.03;5133920;27;20971;-56
2023/04/09 00:31:41;;;;;;;1.47;1.47;;;;;;;8.10;92.31;95551.06;5133814;27;20526;-56
2023/04/09 00:34:10;;;;;;;0.63;0.63;;;;;;;8.08;91.12;95558.44;5133801;27;20454;-56
2023/04/09 00:36:40;;;;;;;0.40;0.40;;;;;;;8.02;91.71;95551.50;5133674;27;20439;-56
2023/04/09 00:39:08;;;;;;;0.50;0.50;;;;;;;8.03;92.16;95545.97;5133232;27;20436;-56
2023/04/09 00:41:36;;;;;;;1.50;0.80;;;;;;;7.67;91.69;95493.84;5133867;27;20473;-56
2023/04/09 00:44:04;;;;;;;0.50;0.50;;;;;;;8.02;91.03;95543.59;5133030;27;20813;-56
2023/04/09 00:46:33;;;;;;;0.93;0.93;;;;;;;7.88;91.73;95552.91;5133615;27;20479;-56
2023/04/09 00:49:01;;;;;;;0.60;0.50;;;;;;;7.69;91.92;95550.59;5133362;27;20437;-56
2023/04/09 00:51:30;;;;;;;0.83;0.60;;;;;;;7.90;91.94;95556.91;5133856;27;20463;-56
2023/04/09 00:54:00;;;;;;;1.70;0.70;;;;;;;7.98;90.37;95558.31;5133063;27;20451;-56
2023/04/09 00:56:29;;;;;;;0.40;0.40;;;;;;;7.49;90.57;95481.75;5133453;27;20884;-56
2023/04/09 00:58:58;;;;;;;0.40;0.23;;;;;;;7.77;92.57;95544.06;5133067;27;20436;-56
2023/04/09 01:01:26;;;;;;;0.40;0.40;;;;;;;7.65;91.28;95512.56;5133325;27;20479;-56
2023/04/09 01:03:55;;;;;;;0.30;0.30;;;;;;;7.74;90.85;95515.56;5133359;27;20424;-56
2023/04/09 01:06:33;;;;;;;0.40;0.30;;;;;;;7.73;90.81;95521.06;5133096;27;20476;-56
2023/04/09 01:09:09;;;;;;;0.40;0.33;;;;;;;7.97;90.91;95562.00;5132838;27;20797;-56
2023/04/09 01:11:43;;;;;;;0.60;0.47;;;;;;;7.89;92.78;95573.00;5133120;27;20527;-56
2023/04/09 01:14:20;;;;;;;0.60;0.60;;;;;;;7.83;92.93;95563.41;5127892;27;20475;-56
2023/04/09 01:16:55;;;;;;;1.90;0.80;;;;;;;7.92;92.42;95552.19;5133356;27;21091;-56
2023/04/09 01:19:37;;;;;;;0.40;0.30;;;;;;;7.86;92.91;95553.19;5132917;27;20439;-56
2023/04/09 01:22:14;;;;;;;0.73;0.73;;;;;;;7.97;92.44;95554.88;5131985;27;20494;-57
2023/04/09 01:24:57;;;;;;;0.40;0.30;;;;;;;7.94;91.68;95555.38;5132282;27;20899;-56
2023/04/09 01:27:34;;;;;;;0.40;0.40;;;;;;;7.95;91.41;95549.03;5133130;27;20840;-56
2023/04/09 01:30:05;;;;;;;4.10;0.57;;;;;;;7.89;91.68;95557.16;5132615;27;20440;-56
2023/04/09 01:32:36;;;;;;;0.30;0.20;;;;;;;7.95;90.95;95550.88;5132531;27;20439;-56
2023/04/09 01:35:07;;;;;;;0.50;0.30;;;;;;;7.80;92.14;95538.31;5132521;27;20441;-55
2023/04/09 01:37:36;;;;;;;1.13;1.13;;;;;;;7.71;92.04;95515.25;5131607;27;20561;-56
2023/04/09 01:40:05;;;;;;;1.80;0.80;;;;;;;7.88;91.15;95545.00;5132728;27;20454;-55
2023/04/09 01:42:36;;;;;;;0.93;0.80;;;;;;;7.87;90.32;95541.56;5132671;27;20529;-56
2023/04/09 01:45:08;;;;;;;0.60;0.60;;;;;;;7.76;91.51;95549.63;5132662;27;20803;-55
2023/04/09 01:47:36;;;;;;;0.40;0.30;;;;;;;7.33;91.98;95472.09;5132485;27;20468;-55
2023/04/09 01:50:06;;;;;;;0.43;0.30;;;;;;;7.55;93.04;95538.00;5132681;27;20724;-55
2023/04/09 01:52:35;;;;;;;2.50;1.03;;;;;;;7.53;94.94;95543.53;5132122;27;20527;-56
2023/04/09 01:55:03;;;;;;;0.40;0.30;;;;;;;7.42;94.15;95535.72;5132285;27;20517;-56
2023/04/09 01:57:32;;;;;;;1.80;1.10;;;;;;;7.33;97.23;95547.72;5132088;28;20499;-56
2023/04/09 02:00:00;;;;;;;1.20;1.10;;;;;;;7.58;95.11;95548.88;5132333;28;20498;-56
2023/04/09 02:02:36;;;;;;;0.50;0.47;;;;;;;7.64;93.42;95537.31;5131631;28;20468;-56
2023/04/09 02:05:10;;;;;;;0.50;0.50;;;;;;;7.46;93.78;95507.84;5132315;28;20446;-56
2023/04/09 02:07:42;;;;;;;0.40;0.30;;;;;;;7.38;98.73;95547.81;5107486;28;21019;-56
2023/04/09 02:10:16;;;;;;;2.70;1.13;;;;;;;7.34;99.50;95544.84;5129970;28;20488;-57
2023/04/09 02:12:49;;;;;;;0.87;0.87;;;;;;;7.45;99.45;95548.41;5121649;28;20528;-56
2023/04/09 02:15:19;;;;;;;0.50;0.30;;;;;;;7.50;98.76;95551.94;5132214;28;20926;-57
2023/04/09 02:17:49;;;;;;;0.40;0.40;;;;;;;7.26;100.00;95558.44;5132706;28;20523;-57
2023/04/09 02:20:18;;;;;;;0.30;0.20;;;;;;;7.05;100.00;95553.94;5132166;28;20438;-56
2023/04/09 02:22:47;;;;;;;1.07;1.07;;;;;;;6.67;100.00;95559.91;5132309;28;20469;-56
2023/04/09 02:25:15;;;;;;;1.90;1.80;;;;;;;6.43;100.00;95549.72;5131501;28;20506;-56
2023/04/09 02:27:43;;;;;;;1.03;0.60;;;;;;;6.44;100.00;95553.97;5131386;28;20510;-56
2023/04/09 02:30:12;;;;;;;2.30;0.50;;;;;;;6.40;100.00;95543.91;5104946;28;20477;-56
2023/04/09 02:32:40;;;;;;;0.40;0.33;;;;;;;6.85;100.00;95545.72;5132324;28;20447;-56
2023/04/09 02:35:10;;;;;;;0.50;0.40;;;;;;;7.00;100.00;95544.13;5135009;27;20934;-56
2023/04/09 02:37:38;;;;;;;0.67;0.67;;;;;;;7.15;100.00;95532.19;5136039;27;20442;-56
2023/04/09 02:40:08;;;;;;;0.40;0.40;;;;;;;7.15;100.00;95548.81;5136343;27;20526;-56
2023/04/09 02:42:36;;;;;;;0.40;0.40;;;;;;;7.02;100.00;95544.66;5136370;27;20517;-56
2023/04/09 02:45:05;;;;;;;0.57;0.57;;;;;;;6.96;100.00;95542.97;5135672;27;20444;-56
2023/04/09 02:47:33;;;;;;;0.90;0.90;;;;;;;6.96;100.00;95527.19;5135610;27;20512;-56
2023/04/09 02:50:01;;;;;;;0.40;0.30;;;;;;;7.05;100.00;95548.66;5136142;27;20910;-56
2023/04/09 02:52:31;;;;;;;0.50;0.50;;;;;;;7.06;100.00;95538.91;5135806;27;20482;-56
2023/04/09 02:55:00;;;;;;;0.57;0.57;;;;;;;7.10;100.00;95532.91;5135954;27;20439;-56
2023/04/09 02:57:28;;;;;;;0.63;0.63;;;;;;;6.94;100.00;95533.72;5135121;27;20437;-56
2023/04/09 02:59:57;;;;;;;0.40;0.30;;;;;;;7.00;100.00;95525.66;5135817;27;20822;-56
2023/04/09 03:02:25;;;;;;;0.60;0.60;;;;;;;7.01;100.00;95544.88;5135639;27;20435;-57
2023/04/09 03:04:54;;;;;;;0.97;0.87;;;;;;;6.87;100.00;95533.91;5135409;27;20447;-57
2023/04/09 03:07:22;;;;;;;0.83;0.83;;;;;;;6.98;100.00;95548.03;5135200;27;20502;-56
2023/04/09 03:09:52;;;;;;;0.80;0.60;;;;;;;6.51;100.00;95513.28;5135329;27;20483;-56
2023/04/09 03:12:20;;;;;;;0.50;0.30;;;;;;;6.55;100.00;95543.41;5135630;27;20440;-56
2023/04/09 03:14:49;;;;;;;0.67;0.67;;;;;;;6.82;100.00;95538.28;5134681;27;20475;-56
2023/04/09 03:17:17;;;;;;;0.60;0.60;;;;;;;6.98;100.00;95542.75;5135422;27;20871;-56
2023/04/09 03:19:45;;;;;;;5.70;0.53;;;;;;;7.08;100.00;95535.00;5135574;27;20439;-56
2023/04/09 03:22:14;;;;;;;0.30;0.20;;;;;;;6.89;100.00;95536.28;5135071;27;20834;-56
2023/04/09 03:24:42;;;;;;;0.50;0.30;;;;;;;6.92;100.00;95535.81;5134659;27;20828;-56
2023/04/09 03:27:12;;;;;;;0.40;0.30;;;;;;;7.03;100.00;95521.75;5134589;27;21269;-56
2023/04/09 03:29:40;;;;;;;0.80;0.80;;;;;;;7.11;100.00;95518.69;5135221;27;20470;-56
2023/04/09 03:32:08;;;;;;;0.60;0.60;;;;;;;6.79;99.78;95478.19;5134689;27;20445;-56
2023/04/09 03:34:37;;;;;;;0.53;0.53;;;;;;;7.08;99.13;95527.09;5134579;27;20434;-56
2023/04/09 03:37:05;;;;;;;0.60;0.40;;;;;;;7.16;99.35;95531.94;5134953;27;20496;-56
2023/04/09 03:39:33;;;;;;;1.20;1.10;;;;;;;7.23;98.58;95537.84;5134557;27;20437;-57
2023/04/09 03:42:02;;;;;;;0.73;0.70;;;;;;;7.27;99.79;95544.22;5134676;27;20440;-56
2023/04/09 03:44:32;;;;;;;0.80;0.80;;;;;;;7.46;98.33;95542.91;5134691;27;20457;-57
2023/04/09 03:47:00;;;;;;;0.90;0.90;;;;;;;7.60;95.79;95540.72;5133356;27;20471;-56
2023/04/09 03:49:28;;;;;;;1.53;0.37;;;;;;;7.63;95.02;95545.50;5133966;27;20437;-56
2023/04/09 03:51:57;;;;;;;1.63;1.53;;;;;;;7.36;96.49;95545.41;5134572;27;20444;-57
2023/04/09 03:54:25;;;;;;;1.20;1.13;;;;;;;6.97;100.00;95551.69;5134118;27;20512;-57
2023/04/09 03:56:55;;;;;;;0.40;0.40;;;;;;;6.69;100.00;95552.56;5134042;27;20467;-57
2023/04/09 03:59:23;;;;;;;2.50;1.40;;;;;;;6.77;100.00;95551.38;5134851;27;20462;-57
2023/04/09 04:01:53;;;;;;;1.73;1.43;;;;;;;6.63;100.00;95555.38;5133954;27;20441;-57
2023/04/09 04:04:21;;;;;;;0.40;0.40;;;;;;;6.44;100.00;95554.78;5134053;27;20433;-56
2023/04/09 04:06:51;;;;;;;1.67;1.57;;;;;;;6.36;100.00;95558.59;5133894;27;20999;-56
2023/04/09 04:09:19;;;;;;;1.13;1.03;;;;;;;6.37;100.00;95533.84;5134111;27;20446;-57
2023/04/09 04:11:47;;;;;;;1.23;1.13;;;;;;;6.94;100.00;95565.34;5134479;27;20453;-56
2023/04/09 04:14:16;;;;;;;0.50;0.50;;;;;;;6.92;100.00;95564.78;5133231;27;20442;-57
2023/04/09 04:16:44;;;;;;;0.40;0.30;;;;;;;6.75;100.00;95545.56;5134399;27;20437;-57
2023/04/09 04:19:14;;;;;;;4.47;2.10;;;;;;;7.08;100.00;95564.00;5134026;27;20465;-57
2023/04/09 04:21:42;;;;;;;1.40;1.40;;;;;;;6.85;100.00;95529.91;5133336;27;20439;-57
2023/04/09 04:24:10;;;;;;;3.80;1.03;;;;;;;7.00;100.00;95554.66;5133812;27;21176;-57
2023/04/09 04:26:40;;;;;;;0.77;0.77;;;;;;;7.16;100.00;95581.25;5133403;27;20551;-57
2023/04/09 04:29:08;;;;;;;0.50;0.37;;;;;;;7.20;100.00;95572.59;5133741;27;20825;-57
2023/04/09 04:31:37;;;;;;;0.87;0.87;;;;;;;7.14;100.00;95572.75;5133695;27;20450;-56
2023/04/09 04:34:05;;;;;;;0.60;0.60;;;;;;;7.22;100.00;95567.88;5133554;27;20444;-57
2023/04/09 04:36:36;;;;;;;0.50;0.50;;;;;;;7.34;100.00;95573.03;5133716;27;20445;-57
2023/04/09 04:39:04;;;;;;;1.40;1.30;;;;;;;7.39;100.00;95568.66;5133217;27;20456;-57
2023/04/09 04:41:33;;;;;;;1.33;1.30;;;;;;;7.25;100.00;95546.31;5133468;27;20929;-57
2023/04/09 04:44:01;;;;;;;1.10;1.10;;;;;;;7.55;99.79;95570.47;5132803;27;20802;-57
2023/04/09 04:46:29;;;;;;;2.43;0.70;;;;;;;7.66;99.17;95572.16;5133604;27;20461;-56
2023/04/09 04:48:58;;;;;;;1.10;0.97;;;;;;;7.72;99.36;95566.97;5132993;27;20476;-57
2023/04/09 04:51:31;;;;;;;1.97;0.80;;;;;;;7.79;98.85;95570.22;5133524;27;20438;-55
2023/04/09 04:54:00;;;;;;;0.47;0.47;;;;;;;7.89;98.03;95573.00;5133504;27;20535;-56
2023/04/09 04:56:30;;;;;;;1.00;0.57;;;;;;;7.84;96.58;95565.03;5133051;27;20436;-56
2023/04/09 04:58:58;;;;;;;0.63;0.63;;;;;;;7.94;97.02;95571.22;5132115;27;20455;-56
2023/04/09 05:01:26;;;;;;;1.90;1.80;;;;;;;8.11;95.83;95573.78;5133471;27;20441;-56
2023/04/09 05:03:55;;;;;;;1.20;1.00;;;;;;;8.13;96.39;95575.13;5133030;27;20472;-56
2023/04/09 05:06:25;;;;;;;0.60;0.50;;;;;;;8.29;94.76;95574.28;5133002;27;20429;-55
2023/04/09 05:08:56;;;;;;;0.60;0.60;;;;;;;8.27;94.23;95563.16;5132672;27;20491;-56
2023/04/09 05:11:26;;;;;;;1.93;1.83;;;;;;;8.04;93.29;95515.09;5133473;27;20541;-56
2023/04/09 05:13:54;;;;;;;3.70;1.17;;;;;;;8.27;94.21;95578.22;5133278;27;21007;-57
2023/04/09 05:16:23;;;;;;;1.07;1.07;;;;;;;8.54;94.29;95572.94;5133109;27;20534;-57
2023/04/09 05:18:52;;;;;;;0.70;0.70;;;;;;;8.02;95.01;95522.47;5106240;27;20440;-57
2023/04/09 05:21:21;;;;;;;1.13;1.13;;;;;;;8.61;93.77;95579.59;5131385;27;20448;-56
2023/04/09 05:23:49;;;;;;;1.50;1.37;;;;;;;8.81;91.08;95577.16;5132719;27;20521;-56
2023/04/09 05:26:17;;;;;;;3.67;0.97;;;;;;;8.17;92.79;95477.75;5133004;27;20472;-56
2023/04/09 05:28:47;;;;;;;1.47;1.13;;;;;;;9.25;90.71;95580.41;5132761;27;20473;-56
2023/04/09 05:31:16;;;;;;;2.83;0.80;;;;;;;8.90;92.56;95580.13;5133075;27;20462;-56
2023/04/09 05:33:44;;;;;;;2.00;0.83;;;;;;;8.99;92.50;95575.16;5133195;27;20519;-56
2023/04/09 05:36:16;;;;;;;2.10;0.50;;;;;;;8.99;91.22;95557.47;5132106;27;21098;-56
2023/04/09 05:38:45;;;;;;;3.10;2.90;;;;;;;8.58;92.83;95595.16;5132509;27;20447;-55
2023/04/09 05:41:15;;;;;;;8.60;2.00;;;;;;;8.26;95.55;95564.22;5132062;27;20522;-55
2023/04/09 05:43:43;;;;;;;7.70;1.70;;;;;;;8.49;94.80;95597.47;5132280;27;20442;-55
2023/04/09 05:46:13;;;;;;;15.43;1.23;;;;;;;8.52;95.80;95596.97;5132610;27;20522;-56
2023/04/09 05:48:41;;;;;;;2.73;2.57;;;;;;;8.15;97.95;95580.16;5132098;27;20473;-56
2023/04/09 05:51:09;;;;;;;1.50;1.33;;;;;;;8.49;96.74;95594.81;5132093;27;20454;-57
2023/04/09 05:53:38;;;;;;;2.73;1.50;;;;;;;8.85;93.88;95593.31;5132490;27;20519;-56
2023/04/09 05:56:14;;;;;;;0.67;0.30;;;;;;;9.20;90.61;95593.59;5131914;27;20954;-56
2023/04/09 05:58:42;;;;;;;2.13;0.53;;;;;;;9.39;89.34;95596.63;5132103;27;20431;-56
2023/04/09 06:01:11;;;;;;;0.73;0.73;;;;;;;9.48;88.22;95595.09;5132372;28;20474;-56
2023/04/09 06:03:41;;;;;;;1.53;1.43;;;;;;;9.53;88.91;95595.16;5132643;28;20423;-56
2023/04/09 06:06:09;;;;;;;1.70;1.60;;;;;;;9.71;87.46;95597.38;5132074;28;20526;-56
2023/04/09 06:08:38;;;;;;;2.30;2.13;;;;;;;9.78;86.87;95597.13;5132523;27;20478;-55
2023/04/09 06:11:09;;;;;;;1.33;1.23;;;;;;;9.91;85.58;95596.66;5136273;27;20964;-55
2023/04/09 06:13:38;;;;;;;4.20;1.07;;;;;;;9.71;86.76;95589.44;5136403;27;20975;-56
2023/04/09 06:16:07;;;;;;;15.93;0.90;;;;;;;10.24;82.86;95593.66;5136862;27;20435;-55
2023/04/09 06:18:36;;;;;;;0.77;0.77;;;;;;;10.11;82.74;95578.22;5136189;27;20486;-56
2023/04/09 06:21:08;;;;;;;0.80;0.57;;;;;;;10.10;82.27;95585.38;5136156;27;20438;-56
2023/04/09 06:23:36;;;;;;;2.00;1.70;;;;;;;9.39;85.45;95527.84;5136170;27;20505;-55
2023/04/09 06:26:05;;;;;;;1.90;1.80;;;;;;;9.68;86.32;95552.88;5136343;27;20434;-55
2023/04/09 06:28:33;;;;;;;1.33;1.27;;;;;;;9.98;85.61;95592.75;5136494;27;20573;-55
2023/04/09 06:31:03;;;;;;;2.07;0.93;;;;;;;10.13;84.45;95587.53;5136153;27;20863;-55
2023/04/09 06:33:31;;;;;;;2.53;2.33;;;;;;;9.48;87.30;95574.75;5136279;27;20439;-56
2023/04/09 06:36:00;;;;;;;7.70;1.77;;;;;;;9.49;89.60;95599.34;5135540;27;20524;-55
2023/04/09 06:38:30;;;;;;;4.70;4.30;;;;;;;9.41;90.85;95599.84;5134020;27;20439;-56
2023/04/09 06:40:58;;;;;;;2.50;1.87;;;;;;;9.48;90.98;95603.84;5134374;27;20447;-56
2023/04/09 06:43:26;;;;;;;1.23;1.13;;;;;;;9.42;91.11;95596.91;5134250;27;20439;-56
2023/04/09 06:45:55;;;;;;;1.50;1.40;;;;;;;9.25;92.77;95601.56;5133462;27;21171;-56
2023/04/09 06:48:23;;;;;;;1.67;1.57;;;;;;;10.11;89.93;95594.09;5134625;27;20435;-56
2023/04/09 06:50:52;;;;;;;1.77;1.67;;;;;;;9.99;87.14;95602.25;5134458;27;20865;-56
2023/04/09 06:53:20;;;;;;;2.00;1.90;;;;;;;10.35;85.45;95589.97;5135123;27;20439;-57
2023/04/09 06:55:50;;;;;;;1.00;0.93;;;;;;;10.70;84.19;95594.59;5135100;27;20521;-56
2023/04/09 06:58:19;;;;;;;14.63;2.00;;;;;;;11.15;81.23;95586.66;5135382;27;20930;-57
2023/04/09 07:00:48;;;;;;;2.77;2.57;;;;;;;11.22;78.91;95581.06;5134862;27;20521;-57
2023/04/09 07:03:16;;;;;;;1.07;1.07;;;;;;;11.43;78.13;95585.31;5135192;27;20526;-57
2023/04/09 07:05:45;;;;;;;1.57;1.47;;;;;;;12.31;80.56;95593.56;5135200;27;21027;-56
2023/04/09 07:08:13;;;;;;;3.47;2.63;;;;;;;12.85;74.83;95585.56;5135201;27;20525;-56
2023/04/09 07:10:42;;;;;;;5.90;0.80;;;;;;;13.09;73.00;95575.84;5128207;27;20471;-55
2023/04/09 07:13:11;;;;;;;1.83;1.73;;;;;;;13.12;71.56;95580.59;5128077;27;20458;-55
2023/04/09 07:15:39;;;;;;;2.60;2.07;;;;;;;13.10;69.86;95580.91;5108461;27;20955;-55
2023/04/09 07:18:09;;;;;;;3.10;1.00;;;;;;;13.48;68.56;95573.91;5135180;27;20435;-55
2023/04/09 07:20:38;;;;;;;2.90;1.93;;;;;;;13.41;66.65;95573.44;5134873;27;20462;-57
2023/04/09 07:23:06;;;;;;;3.17;2.93;;;;;;;12.64;69.07;95583.03;5135138;27;20435;-56
2023/04/09 07:25:35;;;;;;;1.23;1.00;;;;;;;12.50;70.75;95579.38;5134850;27;20423;-57
2023/04/09 07:28:03;;;;;;;5.87;1.13;;;;;;;13.69;67.72;95569.97;5134335;27;20430;-58
2023/04/09 07:30:33;;;;;;;4.20;2.20;;;;;;;14.86;65.68;95572.78;5134231;27;20485;-59
2023/04/09 07:33:01;;;;;;;1.10;1.00;;;;;;;15.63;62.43;95565.19;5133821;27;20431;-58
2023/04/09 07:35:30;;;;;;;5.00;2.67;;;;;;;15.77;61.42;95566.78;5134061;27;20457;-57
2023/04/09 07:37:59;;;;;;;5.80;0.97;;;;;;;15.13;60.47;95481.34;5134332;27;20427;-57
2023/04/09 07:40:27;;;;;;;6.07;2.00;;;;;;;16.39;58.92;95565.28;5133760;27;20523;-57
2023/04/09 07:42:56;;;;;;;1.30;1.20;;;;;;;16.37;57.67;95558.63;5133964;27;20831;-58
2023/04/09 07:45:25;;;;;;;4.30;1.10;;;;;;;16.33;56.33;95558.47;5134510;27;20824;-58
2023/04/09 07:47:55;;;;;;;1.00;0.90;;;;;;;16.18;56.49;95556.09;5134118;27;20427;-59
2023/04/09 07:50:23;;;;;;;1.47;1.37;;;;;;;15.96;54.70;95552.53;5134594;27;20481;-60
2023/04/09 07:52:52;;;;;;;3.53;3.23;;;;;;;17.65;53.51;95543.66;5135046;27;20496;-61
2023/04/09 07:55:20;;;;;;;2.33;2.10;;;;;;;17.86;50.50;95506.34;5134657;27;20521;-63
2023/04/09 07:57:50;;;;;;;4.93;3.47;;;;;;;17.55;51.57;95543.91;5134779;27;20472;-64
2023/04/09 08:00:19;;;;;;;0.93;0.90;;;;;;;17.25;50.58;95471.53;5134308;27;20522;-65
2023/04/09 08:02:47;;;;;;;1.13;0.90;;;;;;;17.76;51.20;95546.81;5134606;27;20438;-64
2023/04/09 08:05:17;;;;;;;1.30;1.00;;;;;;;16.84;51.31;95547.47;5133852;27;20441;-63
2023/04/09 08:07:46;;;;;;;0.63;0.63;;;;;;;17.77;50.29;95543.84;5134173;27;20923;-64
2023/04/09 08:10:15;;;;;;;2.20;1.23;;;;;;;17.62;49.38;95543.47;5134359;27;20803;-63
2023/04/09 08:12:44;;;;;;;2.87;1.53;;;;;;;17.77;50.86;95549.22;5134668;27;20476;-64
2023/04/09 08:15:12;;;;;;;0.83;0.83;;;;;;;18.39;48.34;95538.41;5134544;27;20523;-64
2023/04/09 08:17:40;;;;;;;0.93;0.70;;;;;;;18.83;47.95;95532.78;5134440;27;20466;-65
2023/04/09 08:20:10;;;;;;;0.50;0.50;;;;;;;19.13;46.15;95527.53;5133868;27;20439;-66
2023/04/09 08:22:41;;;;;;;0.60;0.60;;;;;;;18.79;46.31;95542.59;5121929;27;20463;-66
2023/04/09 08:25:10;;;;;;;0.80;0.80;;;;;;;18.48;45.36;95539.22;5133520;27;20561;-66
2023/04/09 08:27:38;;;;;;;0.50;0.50;;;;;;;18.70;45.04;95543.66;5133819;27;20518;-67
2023/04/09 08:30:08;;;;;;;0.70;0.40;;;;;;;19.58;43.53;95532.25;5133651;27;20470;-67
2023/04/09 08:32:36;;;;;;;1.20;1.10;;;;;;;18.97;45.43;95527.25;5133392;27;20461;-66
2023/04/09 08:35:06;;;;;;;0.47;0.40;;;;;;;18.88;44.55;95527.25;5133540;27;20518;-65
2023/04/09 08:37:34;;;;;;;1.43;1.33;;;;;;;18.64;43.94;95524.25;5133285;27;20435;-66
2023/04/09 08:40:04;;;;;;;1.73;1.63;;;;;;;18.97;44.01;95525.34;5134136;27;20485;-66
2023/04/09 08:42:35;;;;;;;3.63;1.57;;;;;;;18.95;41.33;95521.41;5133530;27;20446;-68
2023/04/09 08:45:04;;;;;;;0.60;0.60;;;;;;;19.92;40.01;95515.22;5133876;27;20462;-67
2023/04/09 08:47:36;;;;;;;0.40;0.30;;;;;;;21.36;39.44;95503.78;5133613;27;20431;-67
2023/04/09 08:50:05;;;;;;;0.50;0.50;;;;;;;21.81;39.98;95498.38;5133117;27;20473;-65
2023/04/09 08:52:35;;;;;;;0.50;0.40;;;;;;;21.93;37.60;95503.03;5133467;27;20439;-65
2023/04/09 08:55:05;;;;;;;0.70;0.70;;;;;;;21.25;36.20;95499.91;5133477;27;20495;-65
2023/04/09 08:57:38;;;;;;;0.93;0.63;;;;;;;21.76;37.25;95509.38;5133241;27;20434;-65
2023/04/09 09:00:09;;;;;;;1.23;1.13;;;;;;;21.55;36.89;95499.78;5133166;27;20471;-65
2023/04/09 09:02:38;;;;;;;0.40;0.30;;;;;;;20.77;38.28;95505.09;5133343;27;20439;-66
2023/04/09 09:05:07;;;;;;;0.40;0.40;;;;;;;20.83;39.12;95496.47;5133051;27;20439;-66
2023/04/09 09:07:36;;;;;;;0.40;0.30;;;;;;;20.61;37.56;95498.69;5133644;27;20442;-66
2023/04/09 09:10:06;;;;;;;0.60;0.50;;;;;;;20.51;37.86;95494.50;5132613;27;20502;-65
2023/04/09 09:12:38;;;;;;;0.77;0.77;;;;;;;19.81;38.77;95476.31;5132971;27;20495;-65
2023/04/09 09:15:26;;;;;;;0.60;0.60;;;;;;;19.45;38.71;95494.81;5132578;27;20501;-66
2023/04/09 09:17:56;;;;;;;0.57;0.57;;;;;;;19.08;39.93;95503.53;5132832;27;20867;-66
2023/04/09 09:20:25;;;;;;;0.93;0.90;;;;;;;19.32;39.33;95493.88;5133115;27;20495;-67
2023/04/09 09:22:56;;;;;;;0.47;0.40;;;;;;;20.26;38.33;95493.53;5133099;27;20816;-65
2023/04/09 09:25:26;;;;;;;1.00;1.00;;;;;;;20.22;38.48;95487.19;5132940;27;21024;-65
2023/04/09 09:27:55;;;;;;;1.70;0.93;;;;;;;19.18;38.40;95485.19;5133276;27;20435;-65
2023/04/09 09:30:24;;;;;;;1.10;1.00;;;;;;;18.89;39.17;95493.94;5132566;27;20470;-65
2023/04/09 09:32:53;;;;;;;0.60;0.47;;;;;;;20.45;37.36;95474.25;5131954;27;20429;-66
2023/04/09 09:35:22;;;;;;;0.73;0.60;;;;;;;20.82;38.94;95477.94;5132516;27;20439;-65
2023/04/09 09:38:02;;;;;;;1.90;1.80;;;;;;;22.17;35.96;95465.25;5132726;27;20451;-65
2023/04/09 09:40:32;;;;;;;1.33;1.13;;;;;;;20.32;36.49;95474.50;5133061;27;20521;-65
2023/04/09 09:43:00;;;;;;;0.50;0.40;;;;;;;21.08;38.09;95465.03;5131588;27;20501;-64
2023/04/09 09:45:30;;;;;;;2.10;0.50;;;;;;;21.55;36.21;95451.25;5132874;27;20442;-63
2023/04/09 09:47:58;;;;;;;1.17;1.17;;;;;;;20.60;36.50;95468.28;5131948;27;20429;-62
2023/04/09 09:50:30;;;;;;;0.50;0.50;;;;;;;21.30;35.42;95461.97;5132829;27;20493;-61
2023/04/09 09:53:02;;;;;;;2.00;0.70;;;;;;;22.16;35.16;95458.28;5106252;27;20462;-61
2023/04/09 09:55:34;;;;;;;0.70;0.60;;;;;;;23.46;35.18;95447.75;5132003;27;21079;-60
2023/04/09 09:58:16;;;;;;;0.70;0.70;;;;;;;23.90;32.86;95445.75;5131809;27;20435;-60
2023/04/09 10:00:50;;;;;;;1.87;0.93;;;;;;;23.33;33.78;95389.41;5132444;27;20518;-59
2023/04/09 10:03:22;;;;;;;1.83;1.73;;;;;;;22.47;33.98;95438.75;5132371;28;20474;-57
2023/04/09 10:05:52;;;;;;;0.73;0.73;;;;;;;22.02;33.88;95441.63;5132566;28;20491;-57
2023/04/09 10:08:22;;;;;;;0.40;0.33;;;;;;;23.23;33.33;95438.59;5132227;28;21014;-58
2023/04/09 10:10:52;;;;;;;0.93;0.93;;;;;;;23.74;32.38;95412.50;5132256;28;20466;-57
2023/04/09 10:13:28;;;;;;;0.67;0.63;;;;;;;22.64;32.81;95427.72;5132365;28;20427;-57
2023/04/09 10:15:57;;;;;;;1.30;0.40;;;;;;;23.19;33.63;95414.19;5132340;28;20427;-57
2023/04/09 10:18:26;;;;;;;1.20;0.63;;;;;;;22.97;33.78;95414.72;5131737;28;20430;-57
2023/04/09 10:20:59;;;;;;;0.50;0.40;;;;;;;22.67;35.11;95419.69;5132532;28;20453;-58
2023/04/09 10:23:34;;;;;;;0.87;0.87;;;;;;;22.11;35.72;95421.47;5132299;28;20449;-59
2023/04/09 10:26:05;;;;;;;0.47;0.47;;;;;;;23.12;35.14;95415.91;5131578;28;20523;-58
2023/04/09 10:28:34;;;;;;;2.20;1.80;;;;;;;21.80;33.64;95406.97;5132158;28;20467;-58
2023/04/09 10:31:05;;;;;;;0.87;0.83;;;;;;;21.61;34.10;95412.91;5131809;28;20466;-57
2023/04/09 10:33:36;;;;;;;0.77;0.73;;;;;;;22.64;33.69;95406.88;5132120;28;20554;-57
2023/04/09 10:36:05;;;;;;;0.50;0.43;;;;;;;22.93;34.04;95403.03;5132147;27;20865;-59
2023/04/09 10:38:36;;;;;;;0.83;0.83;;;;;;;22.01;34.28;95403.03;5131954;28;20442;-60
2023/04/09 10:41:14;;;;;;;0.63;0.63;;;;;;;20.81;35.29;95401.72;5118345;28;20877;-62
2023/04/09 10:43:42;;;;;;;0.77;0.77;;;;;;;19.26;37.20;95408.34;5132251;28;20430;-60
2023/04/09 10:46:26;;;;;;;0.70;0.70;;;;;;;19.71;37.01;95397.94;5131883;28;20441;-60
2023/04/09 10:49:12;;;;;;;0.77;0.77;;;;;;;20.00;39.11;95398.69;5131411;28;20522;-60
2023/04/09 10:51:41;;;;;;;15.60;1.00;;;;;;;19.74;37.02;95392.66;5131438;28;20478;-60
2023/04/09 10:54:42;;;;;;;0.50;0.40;;;;;;;20.18;37.58;95392.09;5131568;27;20431;-60
2023/04/09 10:57:13;;;;;;;0.40;0.33;;;;;;;20.17;41.14;95392.41;5135092;27;20515;-60
2023/04/09 10:59:43;;;;;;;1.17;1.07;;;;;;;18.03;39.11;95391.09;5135876;27;20887;-58
2023/04/09 11:02:44;;;;;;;0.47;0.47;;;;;;;17.70;39.87;95392.59;5135621;27;20465;-58
2023/04/09 11:05:23;;;;;;;0.60;0.60;;;;;;;17.08;41.12;95333.72;5135442;27;20449;-59
2023/04/09 11:07:58;;;;;;;0.77;0.77;;;;;;;16.60;42.19;95388.25;5135845;27;20439;-60
2023/04/09 11:10:27;;;;;;;1.13;0.40;;;;;;;16.46;43.30;95391.78;5135291;27;20445;-61
2023/04/09 11:12:57;;;;;;;0.90;0.90;;;;;;;17.06;43.35;95394.84;5135699;27;20521;-61
2023/04/09 11:15:25;;;;;;;0.60;0.60;;;;;;;16.77;43.00;95391.88;5134805;27;20522;-61
2023/04/09 11:17:54;;;;;;;15.53;0.80;;;;;;;16.64;43.53;95387.38;5135110;27;20462;-61
2023/04/09 11:20:24;;;;;;;3.50;0.77;;;;;;;17.35;42.87;95375.59;5135135;27;20435;-62
2023/04/09 11:22:53;;;;;;;0.60;0.50;;;;;;;17.94;42.04;95370.69;5134980;27;20453;-61
2023/04/09 11:25:24;;;;;;;4.30;0.47;;;;;;;17.16;42.08;95361.66;5135286;27;20527;-60
2023/04/09 11:27:53;;;;;;;0.70;0.70;;;;;;;17.26;41.64;95388.16;5134972;27;20445;-60
2023/04/09 11:30:23;;;;;;;0.63;0.53;;;;;;;17.58;41.45;95363.69;5134901;27;20430;-62
2023/04/09 11:32:51;;;;;;;0.50;0.43;;;;;;;17.41;40.85;95310.03;5134703;27;20511;-62
2023/04/09 11:35:22;;;;;;;0.70;0.70;;;;;;;17.81;41.71;95383.13;5135120;27;20431;-62
2023/04/09 11:37:52;;;;;;;0.80;0.80;;;;;;;17.06;41.47;95370.75;5134393;27;20438;-62
2023/04/09 11:40:22;;;;;;;1.23;0.60;;;;;;;16.71;41.95;95378.91;5135082;27;20526;-62
2023/04/09 11:42:52;;;;;;;1.93;1.53;;;;;;;16.26;42.38;95383.44;5134927;27;20431;-65
2023/04/09 11:45:23;;;;;;;1.40;1.30;;;;;;;16.61;42.75;95384.50;5134979;27;20438;-66
2023/04/09 11:47:52;;;;;;;2.00;0.53;;;;;;;16.62;42.59;95370.03;5134099;27;20445;-66
2023/04/09 11:50:21;;;;;;;0.50;0.40;;;;;;;16.04;43.66;95370.81;5134815;27;20456;-67